Time;durP1;ratioP1;P1;durP2;ratioP2;P2;SDS_P1;SDS_P2;PMS_P1;PMS_P2;Temp;Humidity;BMP_temperature;BMP_pressure;BME280_temperature;BME280_humidity;BME280_pressure;Samples;Min_cycle;Max_cycle;Signal;HPM_P1;HPM_P2
2020/12/27 00:02:14;;;;;;;9.23;5.60;;;3.50;99.90;;;;;;5056337;28;20525;-74
2020/12/27 00:04:39;;;;;;;13.43;5.32;;;3.50;99.90;;;;;;5057607;28;20025;-75
2020/12/27 00:07:15;;;;;;;12.50;5.65;;;3.60;99.90;;;;;;5054179;28;20032;-75
2020/12/27 00:09:44;;;;;;;8.80;5.30;;;3.60;99.90;;;;;;5058789;28;20483;-74
2020/12/27 00:12:13;;;;;;;10.88;5.68;;;3.60;99.90;;;;;;5059510;28;20043;-74
2020/12/27 00:14:39;;;;;;;11.82;5.68;;;3.60;99.90;;;;;;5065790;28;20017;-74
2020/12/27 00:17:06;;;;;;;10.60;5.53;;;3.60;99.90;;;;;;5054569;28;20158;-74
2020/12/27 00:19:31;;;;;;;10.65;5.25;;;3.60;99.90;;;;;;5050881;28;20045;-74
2020/12/27 00:21:57;;;;;;;10.18;5.25;;;3.60;99.90;;;;;;5052308;28;20036;-73
2020/12/27 00:24:23;;;;;;;9.65;5.30;;;3.60;99.90;;;;;;5049969;28;20033;-74
2020/12/27 00:26:48;;;;;;;10.20;5.00;;;3.60;99.90;;;;;;5062213;28;20028;-73
2020/12/27 00:29:14;;;;;;;10.88;4.95;;;3.60;99.90;;;;;;5064383;28;20100;-73
2020/12/27 00:31:39;;;;;;;12.82;5.75;;;3.60;99.90;;;;;;5054125;28;20086;-74
2020/12/27 00:34:05;;;;;;;7.82;4.63;;;3.60;99.90;;;;;;5068066;28;20243;-74
2020/12/27 00:36:30;;;;;;;10.88;5.80;;;3.60;99.90;;;;;;5069153;28;20033;-74
2020/12/27 00:38:56;;;;;;;10.77;5.43;;;3.60;99.90;;;;;;5057944;28;20052;-74
2020/12/27 00:41:25;;;;;;;9.88;5.50;;;3.60;99.90;;;;;;5050944;28;20035;-75
2020/12/27 00:43:52;;;;;;;9.80;5.15;;;3.60;99.90;;;;;;5058549;28;20106;-74
2020/12/27 00:46:19;;;;;;;9.57;5.25;;;3.50;99.90;;;;;;5057047;28;20032;-74
2020/12/27 00:48:45;;;;;;;10.93;5.28;;;3.50;99.90;;;;;;5053623;28;20503;-75
2020/12/27 00:51:10;;;;;;;11.07;5.50;;;3.50;99.90;;;;;;5049461;28;20064;-74
2020/12/27 00:53:36;;;;;;;10.60;5.60;;;3.50;99.90;;;;;;5065810;28;20047;-74
2020/12/27 00:56:01;;;;;;;10.15;5.35;;;3.50;99.90;;;;;;5068530;28;20056;-74
2020/12/27 00:58:29;;;;;;;8.23;4.97;;;3.50;99.90;;;;;;5066802;28;20036;-73
2020/12/27 01:00:56;;;;;;;8.93;5.18;;;3.50;99.90;;;;;;5057425;28;20024;-74
2020/12/27 01:03:21;;;;;;;9.00;5.05;;;3.40;99.90;;;;;;5062535;28;20037;-74
2020/12/27 01:05:47;;;;;;;9.57;5.35;;;3.40;99.90;;;;;;5063970;28;20098;-74
2020/12/27 01:08:12;;;;;;;11.02;5.70;;;3.40;99.90;;;;;;5059933;28;20408;-74
2020/12/27 01:10:38;;;;;;;9.13;4.95;;;3.40;99.90;;;;;;5055104;28;20021;-74
2020/12/27 01:13:03;;;;;;;7.53;5.28;;;3.40;99.90;;;;;;5068325;28;20120;-74
2020/12/27 01:15:28;;;;;;;10.70;5.53;;;3.30;99.90;;;;;;5050113;28;20033;-74
2020/12/27 01:17:54;;;;;;;11.90;4.90;;;3.30;99.90;;;;;;5056389;28;20375;-74
2020/12/27 01:20:19;;;;;;;10.75;5.05;;;3.30;99.90;;;;;;5053113;28;20057;-74
2020/12/27 01:22:45;;;;;;;9.75;5.28;;;3.30;99.90;;;;;;5054797;28;20108;-74
2020/12/27 01:25:11;;;;;;;9.75;5.45;;;3.30;99.90;;;;;;5056806;28;20752;-74
2020/12/27 01:27:37;;;;;;;10.60;5.60;;;3.30;99.90;;;;;;5051348;28;20403;-74
2020/12/27 01:30:04;;;;;;;9.93;5.22;;;3.30;99.90;;;;;;5051169;28;20028;-74
2020/12/27 01:32:29;;;;;;;12.20;5.30;;;3.20;99.90;;;;;;5049064;28;20013;-74
2020/12/27 01:34:55;;;;;;;9.98;4.60;;;3.20;99.90;;;;;;5049439;28;20031;-75
2020/12/27 01:37:20;;;;;;;8.45;5.35;;;3.30;99.90;;;;;;5059346;28;20051;-75
2020/12/27 01:39:46;;;;;;;10.77;5.47;;;3.30;99.90;;;;;;5067808;28;20145;-74
2020/12/27 01:42:11;;;;;;;9.88;5.38;;;3.20;99.90;;;;;;5056748;28;20033;-74
2020/12/27 01:44:36;;;;;;;13.27;5.68;;;3.20;99.90;;;;;;5061207;28;20024;-74
2020/12/27 01:47:16;;;;;;;11.43;5.38;;;3.20;99.90;;;;;;5060338;28;20467;-74
2020/12/27 01:49:44;;;;;;;9.23;5.50;;;3.10;99.90;;;;;;5050795;28;20025;-74
2020/12/27 01:52:09;;;;;;;8.48;4.93;;;3.20;99.90;;;;;;5057271;28;20029;-74
2020/12/27 01:54:36;;;;;;;9.05;4.90;;;3.20;99.90;;;;;;5067661;28;20115;-74
2020/12/27 01:57:07;;;;;;;10.13;5.07;;;3.20;99.90;;;;;;5065651;28;20060;-74
2020/12/27 01:59:33;;;;;;;9.52;4.97;;;3.20;99.90;;;;;;5055206;28;20030;-74
2020/12/27 02:01:59;;;;;;;7.97;4.55;;;3.20;99.90;;;;;;5067786;28;20051;-74
2020/12/27 02:04:25;;;;;;;8.07;4.50;;;3.20;99.90;;;;;;5048346;28;20032;-75
2020/12/27 02:06:51;;;;;;;8.35;4.78;;;3.20;99.90;;;;;;5048769;28;20028;-75
2020/12/27 02:09:17;;;;;;;8.88;4.80;;;3.20;99.90;;;;;;5050019;28;20033;-75
2020/12/27 02:11:43;;;;;;;8.18;4.97;;;3.20;99.90;;;;;;5063071;28;20383;-75
2020/12/27 02:14:08;;;;;;;10.35;4.78;;;3.20;99.90;;;;;;5068038;28;20436;-75
2020/12/27 02:16:34;;;;;;;6.60;4.43;;;3.10;99.90;;;;;;5057822;28;20039;-75
2020/12/27 02:19:04;;;;;;;8.27;5.07;;;3.10;99.90;;;;;;5054645;28;20127;-75
2020/12/27 02:21:30;;;;;;;8.13;5.07;;;3.10;99.90;;;;;;5053302;28;20117;-75
2020/12/27 02:23:59;;;;;;;7.60;4.53;;;3.10;99.90;;;;;;5066772;28;20119;-75
2020/12/27 02:26:26;;;;;;;7.43;4.35;;;3.20;99.90;;;;;;5064350;28;20132;-75
2020/12/27 02:28:53;;;;;;;6.82;4.30;;;3.20;99.90;;;;;;5052539;28;20040;-75
2020/12/27 02:31:23;;;;;;;8.32;4.88;;;3.20;99.90;;;;;;5065956;28;20115;-75
2020/12/27 02:33:49;;;;;;;9.35;4.88;;;3.20;99.90;;;;;;5059396;28;20057;-75
2020/12/27 02:36:14;;;;;;;6.05;4.25;;;3.20;99.90;;;;;;5052960;28;20059;-75
2020/12/27 02:38:40;;;;;;;8.00;4.60;;;3.20;99.90;;;;;;5062457;28;20053;-75
2020/12/27 02:41:15;;;;;;;6.70;4.15;;;3.10;99.90;;;;;;5067568;28;20028;-75
2020/12/27 02:43:41;;;;;;;6.78;4.28;;;3.10;99.90;;;;;;5061573;28;20475;-75
2020/12/27 02:46:21;;;;;;;8.43;4.80;;;3.10;99.90;;;;;;5064779;28;20020;-75
2020/12/27 02:48:47;;;;;;;6.78;4.53;;;3.10;99.90;;;;;;5059108;28;20041;-75
2020/12/27 02:51:13;;;;;;;8.75;4.60;;;3.10;99.90;;;;;;5055698;28;20064;-74
2020/12/27 02:53:38;;;;;;;8.05;4.40;;;3.10;99.90;;;;;;5068015;28;20056;-75
2020/12/27 02:56:04;;;;;;;10.18;4.35;;;3.10;99.90;;;;;;5058197;28;20029;-75
2020/12/27 02:58:29;;;;;;;7.47;4.40;;;3.20;99.90;;;;;;5058665;28;20471;-74
2020/12/27 03:00:55;;;;;;;7.90;4.50;;;3.10;99.90;;;;;;5052963;28;20033;-76
2020/12/27 03:03:20;;;;;;;7.43;4.63;;;3.10;99.90;;;;;;5058398;28;20028;-74
2020/12/27 03:05:46;;;;;;;8.63;4.35;;;3.10;99.90;;;;;;5066717;28;20379;-74
2020/12/27 03:08:11;;;;;;;6.38;4.25;;;3.20;99.90;;;;;;5054699;28;20064;-75
2020/12/27 03:10:36;;;;;;;8.00;4.45;;;3.10;99.90;;;;;;5052495;28;20044;-74
2020/12/27 03:13:02;;;;;;;9.75;4.78;;;3.10;99.90;;;;;;5053487;28;20411;-74
2020/12/27 03:15:27;;;;;;;8.57;4.30;;;3.10;99.90;;;;;;5062490;28;20112;-75
2020/12/27 03:17:53;;;;;;;7.35;4.20;;;3.10;99.90;;;;;;5052931;28;20071;-74
2020/12/27 03:20:19;;;;;;;9.75;4.35;;;3.10;99.90;;;;;;5058809;28;20566;-75
2020/12/27 03:22:44;;;;;;;7.20;4.20;;;3.10;99.90;;;;;;5060435;28;20076;-75
2020/12/27 03:25:10;;;;;;;7.68;4.47;;;3.10;99.90;;;;;;5069296;28;20387;-74
2020/12/27 03:27:36;;;;;;;6.38;4.13;;;3.10;99.90;;;;;;5070050;28;20029;-75
2020/12/27 03:30:03;;;;;;;5.63;3.58;;;3.10;99.90;;;;;;5062004;28;20037;-75
2020/12/27 03:32:29;;;;;;;6.38;3.78;;;3.00;99.90;;;;;;5055166;28;20074;-76
2020/12/27 03:34:54;;;;;;;8.00;4.07;;;3.10;99.90;;;;;;5063757;28;20029;-75
2020/12/27 03:37:19;;;;;;;6.47;4.18;;;3.10;99.90;;;;;;5050819;28;20036;-75
2020/12/27 03:39:45;;;;;;;9.07;3.90;;;3.10;99.90;;;;;;5053513;28;20021;-75
2020/12/27 03:42:10;;;;;;;6.10;3.22;;;3.10;99.90;;;;;;5064279;28;20037;-75
2020/12/27 03:44:36;;;;;;;9.02;3.83;;;3.10;99.90;;;;;;5051784;28;20048;-75
2020/12/27 03:47:01;;;;;;;8.55;3.30;;;3.10;99.90;;;;;;5061877;28;20025;-75
2020/12/27 03:49:27;;;;;;;4.63;3.22;;;3.10;99.90;;;;;;5069711;28;20111;-75
2020/12/27 03:51:52;;;;;;;8.50;4.03;;;3.10;99.90;;;;;;5059795;28;20025;-74
2020/12/27 03:54:18;;;;;;;4.82;3.45;;;3.10;99.90;;;;;;5053474;28;20029;-74
2020/12/27 03:56:43;;;;;;;5.25;3.42;;;3.10;99.90;;;;;;5055148;28;20024;-75
2020/12/27 03:59:08;;;;;;;6.80;3.33;;;3.10;99.90;;;;;;5054732;28;20700;-75
2020/12/27 04:01:34;;;;;;;6.20;3.72;;;3.10;99.90;;;;;;5063855;28;20029;-75
2020/12/27 04:03:59;;;;;;;7.18;3.80;;;3.10;99.90;;;;;;5067463;28;20028;-74
2020/12/27 04:06:25;;;;;;;6.20;3.50;;;3.10;99.90;;;;;;5063761;28;20021;-75
2020/12/27 04:08:50;;;;;;;6.07;3.50;;;3.00;99.90;;;;;;5052511;28;20042;-75
2020/12/27 04:11:16;;;;;;;8.50;3.85;;;3.10;99.90;;;;;;5067873;28;20119;-75
2020/12/27 04:13:41;;;;;;;7.82;3.28;;;3.00;99.90;;;;;;5066070;28;20372;-75
2020/12/27 04:16:08;;;;;;;6.80;3.70;;;3.10;99.90;;;;;;5057630;28;20020;-75
2020/12/27 04:18:33;;;;;;;5.63;3.05;;;3.00;99.90;;;;;;5053913;28;20639;-75
2020/12/27 04:20:58;;;;;;;7.05;3.63;;;3.10;99.90;;;;;;5050139;28;20033;-75
2020/12/27 04:23:24;;;;;;;6.22;3.72;;;3.10;99.90;;;;;;5049976;28;20510;-75
2020/12/27 04:25:49;;;;;;;4.93;3.15;;;3.00;99.90;;;;;;5051618;28;20041;-74
2020/12/27 04:28:15;;;;;;;8.10;3.80;;;3.00;99.90;;;;;;5054246;28;20120;-75
2020/12/27 04:30:40;;;;;;;8.15;3.90;;;3.00;99.90;;;;;;5065654;28;20642;-75
2020/12/27 04:33:06;;;;;;;6.47;3.45;;;2.90;99.90;;;;;;5053325;28;20115;-75
2020/12/27 04:35:31;;;;;;;7.95;3.67;;;2.90;99.90;;;;;;5059434;28;20036;-75
2020/12/27 04:37:57;;;;;;;7.40;3.83;;;3.00;99.90;;;;;;5064196;28;20021;-75
2020/12/27 04:40:22;;;;;;;6.57;3.78;;;3.00;99.90;;;;;;5059212;28;20043;-75
2020/12/27 04:42:49;;;;;;;6.65;3.85;;;3.00;99.90;;;;;;5054223;28;20021;-75
2020/12/27 04:45:16;;;;;;;9.23;3.90;;;3.00;99.90;;;;;;5050364;28;20609;-75
2020/12/27 04:47:41;;;;;;;9.55;3.85;;;3.00;99.90;;;;;;5065860;28;20502;-75
2020/12/27 04:50:07;;;;;;;6.53;4.40;;;3.00;99.90;;;;;;5054627;28;20059;-75
2020/12/27 04:52:33;;;;;;;6.22;4.07;;;2.90;99.90;;;;;;5065322;28;20394;-75
2020/12/27 04:54:58;;;;;;;6.53;4.10;;;2.90;99.90;;;;;;5063845;28;20031;-75
2020/12/27 04:57:25;;;;;;;6.28;3.97;;;2.90;99.90;;;;;;5059489;28;20474;-75
2020/12/27 04:59:55;;;;;;;5.97;3.45;;;3.00;99.90;;;;;;5056201;28;20029;-76
2020/12/27 05:02:20;;;;;;;5.32;3.60;;;2.90;99.90;;;;;;5056414;28;20111;-74
2020/12/27 05:04:47;;;;;;;8.05;4.05;;;2.90;99.90;;;;;;5051313;28;20108;-74
2020/12/27 05:07:19;;;;;;;7.85;4.30;;;2.90;99.90;;;;;;5063751;28;20032;-74
2020/12/27 05:09:48;;;;;;;8.63;3.70;;;2.80;99.90;;;;;;5049743;28;20442;-73
2020/12/27 05:12:13;;;;;;;7.80;4.30;;;2.80;99.90;;;;;;5054419;28;20036;-75
2020/12/27 05:14:39;;;;;;;7.32;4.20;;;2.80;99.90;;;;;;5067448;28;20463;-75
2020/12/27 05:17:04;;;;;;;8.20;4.43;;;2.80;99.90;;;;;;5055898;28;20112;-74
2020/12/27 05:19:31;;;;;;;6.50;3.85;;;2.80;99.90;;;;;;5056289;28;20037;-74
2020/12/27 05:22:09;;;;;;;5.88;3.58;;;2.80;99.90;;;;;;5068679;28;20025;-75
2020/12/27 05:24:37;;;;;;;7.95;3.90;;;2.80;99.90;;;;;;5055048;28;20024;-75
2020/12/27 05:27:09;;;;;;;8.02;4.40;;;2.80;99.90;;;;;;5052173;28;20436;-74
2020/12/27 05:29:37;;;;;;;8.20;3.85;;;2.70;99.90;;;;;;5062376;28;20035;-74
2020/12/27 05:32:03;;;;;;;9.77;4.20;;;2.80;99.90;;;;;;5067847;28;20024;-74
2020/12/27 05:34:29;;;;;;;6.15;3.60;;;2.70;99.90;;;;;;5061597;28;20025;-74
2020/12/27 05:36:57;;;;;;;8.00;4.43;;;2.70;99.90;;;;;;5064204;28;20736;-74
2020/12/27 05:39:23;;;;;;;7.55;4.15;;;2.70;99.90;;;;;;5060969;28;20060;-74
2020/12/27 05:41:48;;;;;;;8.63;4.65;;;2.70;99.90;;;;;;5051194;28;20041;-74
2020/12/27 05:44:16;;;;;;;6.55;3.72;;;2.70;99.90;;;;;;5049829;28;20429;-74
2020/12/27 05:46:44;;;;;;;8.68;4.25;;;2.70;99.90;;;;;;5050245;28;20032;-74
2020/12/27 05:49:11;;;;;;;6.90;4.10;;;2.70;99.90;;;;;;5052225;28;20107;-74
2020/12/27 05:51:50;;;;;;;10.15;4.47;;;2.60;99.90;;;;;;5059166;28;21631;-74
2020/12/27 05:54:26;;;;;;;6.40;3.70;;;2.70;99.90;;;;;;5064424;28;20056;-75
2020/12/27 05:56:55;;;;;;;8.57;4.65;;;2.70;99.90;;;;;;5057139;28;20391;-76
2020/12/27 05:59:23;;;;;;;9.20;4.40;;;2.60;99.90;;;;;;5051625;28;20413;-74
2020/12/27 06:01:54;;;;;;;11.90;4.28;;;2.60;99.90;;;;;;5068003;28;20492;-75
2020/12/27 06:04:38;;;;;;;9.93;4.47;;;2.60;99.90;;;;;;5058298;28;20490;-74
2020/12/27 06:07:06;;;;;;;8.70;3.47;;;2.60;99.90;;;;;;5056637;28;20062;-75
2020/12/27 06:09:56;;;;;;;7.75;3.97;;;2.50;99.90;;;;;;5048283;28;20048;-75
2020/12/27 06:12:25;;;;;;;8.60;4.32;;;2.50;99.90;;;;;;5050876;28;20043;-74
2020/12/27 06:15:06;;;;;;;7.43;4.43;;;2.50;99.90;;;;;;5055885;28;20051;-75
2020/12/27 06:17:51;;;;;;;10.18;4.43;;;2.50;99.90;;;;;;5053700;28;20052;-74
2020/12/27 06:20:19;;;;;;;6.80;4.10;;;2.50;99.90;;;;;;5040042;28;20418;-75
2020/12/27 06:22:52;;;;;;;7.75;4.05;;;2.40;99.90;;;;;;5065196;28;20025;-74
2020/12/27 06:25:18;;;;;;;6.20;3.13;;;2.40;99.90;;;;;;5049976;28;20090;-74
2020/12/27 06:27:45;;;;;;;7.10;4.03;;;2.40;99.90;;;;;;5048335;28;20465;-74
2020/12/27 06:30:21;;;;;;;10.05;4.07;;;2.40;99.90;;;;;;5055887;28;20359;-74
2020/12/27 06:33:20;;;;;;;11.82;4.50;;;2.30;99.90;;;;;;5064834;28;20029;-80
2020/12/27 06:35:46;;;;;;;8.75;4.38;;;2.40;99.90;;;;;;5060284;28;20041;-75
2020/12/27 06:38:22;;;;;;;8.75;4.13;;;2.40;99.90;;;;;;5053967;28;20681;-74
2020/12/27 06:40:54;;;;;;;6.88;3.60;;;2.40;99.90;;;;;;5058382;28;20067;-75
2020/12/27 06:43:21;;;;;;;11.00;3.60;;;2.50;99.90;;;;;;5053891;28;20025;-75
2020/12/27 06:45:47;;;;;;;8.73;4.10;;;2.40;99.90;;;;;;5055921;28;20036;-74
2020/12/27 06:48:36;;;;;;;7.43;4.00;;;2.40;99.90;;;;;;5047824;28;20044;-75
2020/12/27 06:51:03;;;;;;;8.00;3.80;;;2.50;99.90;;;;;;5056756;28;20033;-74
2020/12/27 06:53:54;;;;;;;8.65;3.67;;;2.50;99.90;;;;;;5047801;28;20021;-74
2020/12/27 06:56:46;;;;;;;6.55;3.60;;;2.50;99.90;;;;;;5049176;28;20029;-74
2020/12/27 06:59:12;;;;;;;10.98;3.83;;;2.50;99.90;;;;;;5058881;28;20295;-74
2020/12/27 07:01:37;;;;;;;7.18;3.63;;;2.50;99.90;;;;;;5047694;28;20041;-74
2020/12/27 07:04:17;;;;;;;6.78;3.88;;;2.50;99.90;;;;;;5047944;28;20025;-74
2020/12/27 07:06:44;;;;;;;6.70;3.28;;;2.50;99.90;;;;;;5051999;28;20115;-76
2020/12/27 07:09:10;;;;;;;8.27;4.10;;;2.50;99.90;;;;;;5061135;28;20067;-75
2020/12/27 07:11:36;;;;;;;4.60;2.97;;;2.60;99.90;;;;;;5047958;28;20025;-74
2020/12/27 07:14:02;;;;;;;5.97;3.13;;;2.50;99.40;;;;;;5054723;28;20029;-74
2020/12/27 07:16:54;;;;;;;10.50;3.58;;;2.60;99.20;;;;;;5049184;28;20021;-74
2020/12/27 07:19:19;;;;;;;6.30;3.03;;;2.50;99.00;;;;;;5047619;28;20041;-74
2020/12/27 07:21:47;;;;;;;5.78;3.17;;;2.60;99.20;;;;;;5048002;28;20021;-75
2020/12/27 07:24:12;;;;;;;6.07;3.20;;;2.60;98.80;;;;;;5059302;28;20760;-75
2020/12/27 07:26:40;;;;;;;6.55;3.13;;;2.60;98.70;;;;;;5066502;28;20066;-74
2020/12/27 07:29:07;;;;;;;5.75;3.03;;;2.60;98.50;;;;;;5058114;28;20024;-74
2020/12/27 07:31:34;;;;;;;5.72;3.28;;;2.60;98.50;;;;;;5058587;28;20032;-73
2020/12/27 07:33:59;;;;;;;6.65;3.70;;;2.60;98.20;;;;;;5053876;28;20025;-74
2020/12/27 07:36:26;;;;;;;4.80;2.72;;;2.60;97.80;;;;;;5055028;28;20028;-75
2020/12/27 07:38:51;;;;;;;5.07;3.08;;;2.60;97.80;;;;;;5056923;28;20028;-74
2020/12/27 07:41:30;;;;;;;6.45;2.67;;;2.60;97.80;;;;;;5071084;28;20055;-75
2020/12/27 07:43:57;;;;;;;4.85;2.38;;;2.60;97.30;;;;;;5063423;28;20086;-75
2020/12/27 07:46:24;;;;;;;4.38;2.20;;;2.70;97.00;;;;;;5056402;28;20025;-74
2020/12/27 07:48:49;;;;;;;6.00;2.50;;;2.60;96.40;;;;;;5057128;28;20059;-76
2020/12/27 07:51:19;;;;;;;4.75;2.40;;;2.60;95.80;;;;;;5052277;28;20531;-76
2020/12/27 07:53:57;;;;;;;4.00;2.33;;;2.60;95.80;;;;;;5067372;28;20370;-78
2020/12/27 07:56:24;;;;;;;5.07;2.38;;;2.60;95.30;;;;;;5070362;28;20020;-74
2020/12/27 07:58:57;;;;;;;4.78;1.92;;;2.60;95.20;;;;;;5060808;28;20024;-78
2020/12/27 08:01:35;;;;;;;4.43;2.50;;;2.50;94.70;;;;;;5050724;28;20037;-77
2020/12/27 08:04:07;;;;;;;3.53;2.40;;;2.60;94.80;;;;;;5058762;28;20055;-76
2020/12/27 08:06:35;;;;;;;5.32;2.13;;;2.70;94.60;;;;;;5068685;28;20032;-77
2020/12/27 08:09:05;;;;;;;8.77;2.35;;;2.70;94.30;;;;;;5051244;28;20021;-77
2020/12/27 08:11:32;;;;;;;3.78;2.20;;;2.70;94.10;;;;;;5051286;28;20360;-80
2020/12/27 08:14:03;;;;;;;3.83;2.15;;;2.70;94.00;;;;;;5060490;28;20021;-78
2020/12/27 08:16:29;;;;;;;;;;;2.70;93.80;;;;;;5057409;28;20487;-77
2020/12/27 08:19:09;;;;;;;3.65;1.98;;;2.70;93.30;;;;;;5061319;28;19912;-79
2020/12/27 08:21:40;;;;;;;3.90;1.98;;;2.70;92.90;;;;;;5065354;28;20032;-77
2020/12/27 08:24:07;;;;;;;4.32;2.00;;;2.70;92.80;;;;;;5056723;28;20052;-77
2020/12/27 08:26:44;;;;;;;3.90;2.15;;;2.70;92.10;;;;;;5054156;28;20043;-77
2020/12/27 08:29:13;;;;;;;3.80;2.13;;;2.70;92.00;;;;;;5054879;28;20040;-81
2020/12/27 08:31:40;;;;;;;3.83;1.70;;;2.70;91.80;;;;;;5057100;28;20025;-85
2020/12/27 08:34:16;;;;;;;2.95;1.92;;;2.70;91.70;;;;;;5063091;28;20091;-81
2020/12/27 08:36:48;;;;;;;4.05;2.72;;;2.70;91.50;;;;;;5058859;28;20029;-81
2020/12/27 08:39:29;;;;;;;6.05;2.35;;;2.70;91.20;;;;;;5052923;28;20032;-77
2020/12/27 08:42:00;;;;;;;5.53;2.10;;;2.70;91.10;;;;;;5059433;28;20017;-78
2020/12/27 08:44:46;;;;;;;3.22;1.88;;;2.70;91.30;;;;;;5055862;28;20072;-78
2020/12/27 08:47:40;;;;;;;4.05;2.08;;;2.70;90.90;;;;;;5049264;28;20514;-78
2020/12/27 08:50:36;;;;;;;3.60;2.08;;;2.60;90.70;;;;;;5030912;28;20044;-79
2020/12/27 08:53:03;;;;;;;5.93;2.25;;;2.70;90.40;;;;;;5044140;28;20060;-79
2020/12/27 08:55:30;;;;;;;2.67;1.60;;;2.70;90.10;;;;;;5059388;28;20493;-79
2020/12/27 08:57:59;;;;;;;4.45;2.67;;;2.80;90.20;;;;;;5069116;28;20041;-79
2020/12/27 09:00:34;;;;;;;2.90;1.75;;;2.70;89.70;;;;;;5057379;28;20036;-80
2020/12/27 09:03:01;;;;;;;3.67;1.70;;;2.70;88.70;;;;;;5049454;28;20029;-77
2020/12/27 09:05:28;;;;;;;4.35;1.88;;;2.70;88.50;;;;;;5057400;28;20037;-78
2020/12/27 09:07:54;;;;;;;4.60;2.40;;;2.80;88.60;;;;;;5060809;28;20025;-78
2020/12/27 09:10:21;;;;;;;4.25;2.20;;;2.70;88.10;;;;;;5050548;28;20028;-78
2020/12/27 09:13:04;;;;;;;3.45;1.90;;;2.80;87.70;;;;;;5050778;28;20021;-78
2020/12/27 09:15:32;;;;;;;5.00;2.20;;;2.80;87.90;;;;;;5062893;28;20032;-79
2020/12/27 09:18:02;;;;;;;5.05;2.47;;;2.80;87.10;;;;;;5055402;28;20032;-78
2020/12/27 09:20:30;;;;;;;4.38;2.00;;;2.90;88.20;;;;;;5059396;28;20097;-78
2020/12/27 09:22:56;;;;;;;3.05;2.20;;;2.90;86.80;;;;;;5050518;28;20041;-79
2020/12/27 09:25:23;;;;;;;5.80;2.25;;;2.90;87.10;;;;;;5055148;28;20194;-78
2020/12/27 09:27:50;;;;;;;4.65;2.08;;;2.80;86.50;;;;;;5051432;28;20029;-78
2020/12/27 09:30:21;;;;;;;3.60;2.08;;;2.90;87.20;;;;;;5068097;28;20029;-78
2020/12/27 09:32:47;;;;;;;2.92;1.95;;;2.90;86.00;;;;;;5061313;28;20455;-79
2020/12/27 09:35:21;;;;;;;3.15;2.25;;;2.90;85.50;;;;;;5064211;28;20028;-78
2020/12/27 09:37:46;;;;;;;4.18;2.33;;;2.90;85.00;;;;;;5067125;28;20510;-77
2020/12/27 09:40:15;;;;;;;3.17;1.75;;;2.90;85.00;;;;;;5065943;28;20036;-78
2020/12/27 09:42:40;;;;;;;2.83;1.90;;;2.90;84.80;;;;;;5060821;28;20068;-79
2020/12/27 09:45:24;;;;;;;4.28;2.63;;;2.90;84.60;;;;;;5051648;28;20119;-78
2020/12/27 09:47:52;;;;;;;3.75;2.20;;;3.00;84.70;;;;;;5057348;28;20038;-78
2020/12/27 09:50:25;;;;;;;3.78;2.33;;;2.90;83.90;;;;;;5053531;28;20364;-78
2020/12/27 09:52:50;;;;;;;3.80;2.03;;;3.00;84.60;;;;;;5052044;28;20047;-78
2020/12/27 09:55:16;;;;;;;3.35;2.25;;;2.90;84.20;;;;;;5052582;28;20445;-79
2020/12/27 09:57:41;;;;;;;4.95;2.50;;;2.90;84.10;;;;;;5066063;28;20161;-78
2020/12/27 10:00:08;;;;;;;6.25;2.40;;;2.90;84.60;;;;;;5067903;28;20037;-78
2020/12/27 10:02:34;;;;;;;4.55;2.42;;;2.90;84.60;;;;;;5068899;28;20414;-78
2020/12/27 10:04:59;;;;;;;3.70;2.30;;;2.90;84.10;;;;;;5058120;28;20043;-78
2020/12/27 10:07:25;;;;;;;5.90;2.38;;;3.00;84.50;;;;;;5067554;28;20029;-78
2020/12/27 10:09:51;;;;;;;3.60;2.20;;;3.00;83.80;;;;;;5059250;28;20411;-79
2020/12/27 10:12:17;;;;;;;3.78;2.25;;;3.10;84.70;;;;;;5065915;28;20028;-79
2020/12/27 10:14:42;;;;;;;4.60;2.50;;;3.20;83.90;;;;;;5065096;28;20082;-78
2020/12/27 10:17:09;;;;;;;5.25;2.45;;;3.30;84.40;;;;;;5054487;28;20013;-78
2020/12/27 10:19:35;;;;;;;5.03;2.80;;;3.20;82.90;;;;;;5046393;28;20052;-79
2020/12/27 10:22:01;;;;;;;5.28;2.45;;;3.40;82.90;;;;;;5051979;28;20029;-79
2020/12/27 10:24:28;;;;;;;5.32;2.63;;;3.30;82.70;;;;;;5050294;28;20033;-79
2020/12/27 10:26:53;;;;;;;4.43;2.55;;;3.20;82.80;;;;;;5053575;28;20044;-79
2020/12/27 10:29:19;;;;;;;6.50;2.47;;;3.20;82.70;;;;;;5052598;28;20085;-79
2020/12/27 10:31:50;;;;;;;5.00;2.78;;;3.30;82.40;;;;;;5053620;28;20040;-78
2020/12/27 10:34:15;;;;;;;4.72;2.25;;;3.30;82.30;;;;;;5053867;28;20017;-78
2020/12/27 10:36:45;;;;;;;6.10;3.00;;;3.30;81.90;;;;;;5052774;28;21201;-78
2020/12/27 10:39:11;;;;;;;3.53;2.22;;;3.30;81.50;;;;;;5051131;28;20029;-78
2020/12/27 10:41:44;;;;;;;6.47;2.45;;;3.20;81.90;;;;;;5052059;28;20502;-78
2020/12/27 10:44:10;;;;;;;4.95;2.70;;;3.20;80.90;;;;;;5053949;28;20045;-78
2020/12/27 10:46:35;;;;;;;3.40;2.38;;;3.20;81.30;;;;;;5051918;28;20410;-79
2020/12/27 10:49:01;;;;;;;4.20;2.65;;;3.30;81.10;;;;;;5053440;28;20082;-79
2020/12/27 10:51:26;;;;;;;3.58;2.17;;;3.20;80.40;;;;;;5053661;28;20531;-79
2020/12/27 10:53:52;;;;;;;4.05;2.40;;;3.20;81.40;;;;;;5053245;28;20040;-77
2020/12/27 10:56:17;;;;;;;3.15;2.20;;;3.10;80.70;;;;;;5051160;28;20779;-78
2020/12/27 10:58:45;;;;;;;7.47;3.58;;;3.20;80.50;;;;;;5052554;28;20035;-77
2020/12/27 11:01:11;;;;;;;3.05;2.10;;;3.10;80.30;;;;;;5055278;28;20033;-78
2020/12/27 11:03:36;;;;;;;5.57;2.70;;;3.10;80.50;;;;;;5056655;28;20038;-79
2020/12/27 11:06:02;;;;;;;3.90;1.98;;;3.20;81.10;;;;;;5056108;28;20580;-79
2020/12/27 11:08:36;;;;;;;4.35;2.47;;;3.20;80.30;;;;;;5053309;28;20171;-78
2020/12/27 11:11:02;;;;;;;4.28;2.63;;;3.30;80.10;;;;;;5057732;28;20107;-78
2020/12/27 11:13:27;;;;;;;3.72;2.47;;;3.30;79.50;;;;;;5056703;28;20048;-78
2020/12/27 11:15:53;;;;;;;3.92;2.13;;;3.30;79.40;;;;;;5055765;28;20658;-78
2020/12/27 11:18:18;;;;;;;6.10;2.65;;;3.20;78.80;;;;;;5056272;28;20131;-78
2020/12/27 11:20:44;;;;;;;3.50;2.10;;;3.20;78.80;;;;;;5056772;28;20053;-77
2020/12/27 11:23:09;;;;;;;4.57;2.58;;;3.20;78.80;;;;;;5056548;28;20242;-79
2020/12/27 11:25:35;;;;;;;5.60;2.67;;;3.30;79.00;;;;;;5056939;28;20052;-78
2020/12/27 11:28:00;;;;;;;3.88;2.47;;;3.30;78.10;;;;;;5056607;28;21181;-78
2020/12/27 11:30:26;;;;;;;4.22;2.75;;;3.30;78.60;;;;;;5056589;28;20688;-78
2020/12/27 11:32:51;;;;;;;4.00;2.50;;;3.40;78.20;;;;;;5055384;28;20028;-79
2020/12/27 11:35:17;;;;;;;3.58;2.15;;;3.40;77.90;;;;;;5055296;28;20024;-79
2020/12/27 11:37:42;;;;;;;3.75;2.20;;;3.30;77.40;;;;;;5056712;28;20029;-79
2020/12/27 11:40:08;;;;;;;4.25;2.20;;;3.30;77.40;;;;;;5056752;28;20036;-79
2020/12/27 11:42:35;;;;;;;4.20;2.40;;;3.30;77.10;;;;;;5056932;28;20025;-78
2020/12/27 11:45:01;;;;;;;7.10;2.85;;;3.30;77.30;;;;;;5055743;28;20131;-78
2020/12/27 11:47:26;;;;;;;4.95;2.95;;;3.30;79.00;;;;;;5056984;28;20162;-78
2020/12/27 11:49:52;;;;;;;6.68;3.05;;;3.30;76.90;;;;;;5056989;28;20028;-78
2020/12/27 11:52:17;;;;;;;12.57;4.88;;;3.40;77.10;;;;;;5055927;28;20057;-78
2020/12/27 11:54:43;;;;;;;5.65;2.88;;;3.40;77.00;;;;;;5056141;28;20029;-78
2020/12/27 11:57:17;;;;;;;4.65;2.40;;;3.40;76.30;;;;;;5056022;28;20479;-79
2020/12/27 11:59:44;;;;;;;5.65;2.30;;;3.40;76.50;;;;;;5055707;28;20021;-78
2020/12/27 12:02:09;;;;;;;3.80;1.98;;;3.40;75.80;;;;;;5055628;28;20025;-79
2020/12/27 12:04:34;;;;;;;4.07;1.80;;;3.30;75.40;;;;;;5054304;28;20047;-78
2020/12/27 12:07:00;;;;;;;3.35;2.00;;;3.40;75.80;;;;;;5056055;28;20029;-78
2020/12/27 12:09:25;;;;;;;8.90;3.83;;;3.40;75.50;;;;;;5055560;28;20433;-78
2020/12/27 12:11:51;;;;;;;4.45;2.28;;;3.50;74.60;;;;;;5054555;28;20138;-78
2020/12/27 12:14:16;;;;;;;6.60;2.30;;;3.50;74.90;;;;;;5055212;28;20055;-78
2020/12/27 12:16:42;;;;;;;3.05;2.17;;;3.50;74.20;;;;;;5055506;28;20575;-79
2020/12/27 12:19:07;;;;;;;4.75;2.38;;;3.50;74.20;;;;;;5056021;28;20049;-77
2020/12/27 12:21:33;;;;;;;4.75;2.85;;;3.50;73.80;;;;;;5055284;28;20040;-78
2020/12/27 12:23:59;;;;;;;3.50;2.03;;;3.60;74.10;;;;;;5055452;28;20033;-78
2020/12/27 12:26:27;;;;;;;3.50;1.67;;;3.50;72.80;;;;;;5055400;28;20661;-78
2020/12/27 12:28:53;;;;;;;1.67;1.58;;;3.50;72.40;;;;;;5055172;28;20475;-78
2020/12/27 12:31:18;;;;;;;2.67;1.77;;;3.60;72.20;;;;;;5055422;28;20040;-79
2020/12/27 12:33:45;;;;;;;3.42;1.65;;;3.50;71.50;;;;;;5055286;28;20090;-79
2020/12/27 12:36:18;;;;;;;3.17;1.92;;;3.60;72.30;;;;;;5054728;28;20094;-78
2020/12/27 12:38:43;;;;;;;5.25;1.90;;;3.70;72.10;;;;;;5055779;28;20056;-78
2020/12/27 12:41:15;;;;;;;2.72;1.50;;;3.70;71.10;;;;;;5054898;28;20032;-78
2020/12/27 12:43:43;;;;;;;2.55;1.65;;;3.70;70.50;;;;;;5054872;28;20504;-78
2020/12/27 12:46:10;;;;;;;2.35;1.40;;;3.80;69.70;;;;;;5054885;28;20037;-78
2020/12/27 12:48:36;;;;;;;2.42;1.50;;;3.80;70.00;;;;;;5053623;28;20481;-78
2020/12/27 12:51:03;;;;;;;1.50;1.40;;;3.80;68.80;;;;;;5054105;28;20047;-79
2020/12/27 12:53:28;;;;;;;2.50;1.58;;;3.80;69.30;;;;;;5053340;28;20053;-79
2020/12/27 12:55:54;;;;;;;3.58;1.70;;;3.80;69.80;;;;;;5055529;28;20159;-80
2020/12/27 12:58:19;;;;;;;4.88;1.77;;;3.80;69.40;;;;;;5052403;28;20029;-79
2020/12/27 13:00:45;;;;;;;1.95;1.40;;;3.80;71.20;;;;;;5054822;28;20504;-80